Gloversville, New York
Current Conditions -  °F | °C
As of 8:15 PM on Saturday 22 Nov 2014 (Local Time) from KNY0 Reporting Station
Overcast Overcast  
Wind Chill: 30°   Ceiling: 2400
Heat Index: 30°   Visibility: 10mi
Dew Point: 27°   Wind: 0mph
Humidity: 91%   Direction: NA
Pressure: 30.04"   Gusts: NA
Location:  43.06°N, 74.34°W
Report Text: KNY0 230115Z AUTO 00000KT 10SM OVC024 M01/M03 A3004 RMK AO2 T10131026
Loading
Personal Weather Stations






























Interactive Weather Map New forecast layout! Learn more

10-Day Weather Forecast

Advertisements
Track Severe Weather on mobile